Time;durP1;ratioP1;P1;durP2;ratioP2;P2;SDS_P1;SDS_P2;PMS_P1;PMS_P2;Temp;Humidity;BMP_temperature;BMP_pressure;BME280_temperature;BME280_humidity;BME280_pressure;Samples;Min_cycle;Max_cycle;Signal;HPM_P1;HPM_P2
2020/12/21 00:00:53;;;;;;;10.10;3.60;;;15.40;68.60;;;;;;2100731;28;20029;-78
2020/12/21 00:02:01;;;;;;;11.98;3.83;;;15.30;68.20;;;;;;2092863;28;20048;-78
2020/12/21 00:03:09;;;;;;;17.77;4.28;;;15.30;68.40;;;;;;2100671;28;20060;-77
2020/12/21 00:04:12;;;;;;;14.80;4.18;;;14.90;69.20;;;;;;2100902;28;20037;-76
2020/12/21 00:05:25;;;;;;;12.23;3.40;;;14.90;69.60;;;;;;2100724;28;20040;-77
2020/12/21 00:06:33;;;;;;;9.80;3.10;;;15.00;70.60;;;;;;2100768;28;20029;-75
2020/12/21 00:07:42;;;;;;;11.40;4.20;;;15.10;70.90;;;;;;2100180;28;20037;-77
2020/12/21 00:08:43;;;;;;;12.23;3.88;;;15.30;69.40;;;;;;2101053;28;20049;-77
2020/12/21 00:09:53;;;;;;;13.63;3.67;;;15.10;70.00;;;;;;2101056;28;20056;-77
2020/12/21 00:10:55;;;;;;;10.25;3.50;;;15.50;69.10;;;;;;2100860;28;20048;-77
2020/12/21 00:12:21;;;;;;;14.10;3.83;;;15.60;69.00;;;;;;2109261;28;20041;-76
2020/12/21 00:13:24;;;;;;;8.13;2.88;;;15.80;68.00;;;;;;2103204;28;20072;-76
2020/12/21 00:14:32;;;;;;;11.82;3.67;;;15.70;68.40;;;;;;2095493;28;20045;-75
2020/12/21 00:15:34;;;;;;;;;;;15.60;67.70;;;;;;2097137;28;20129;-76
2020/12/21 00:16:45;;;;;;;14.63;4.25;;;15.70;67.60;;;;;;2095123;28;20403;-76
2020/12/21 00:17:49;;;;;;;8.27;3.22;;;15.30;68.00;;;;;;2094609;28;20509;-76
2020/12/21 00:18:58;;;;;;;12.65;3.60;;;15.30;69.70;;;;;;2094290;28;20037;-77
2020/12/21 00:20:05;;;;;;;13.15;3.88;;;15.20;69.70;;;;;;2096926;28;20041;-76
2020/12/21 00:21:25;;;;;;;8.27;3.20;;;15.30;68.90;;;;;;2096661;28;20056;-76
2020/12/21 00:22:31;;;;;;;14.50;3.97;;;15.30;69.60;;;;;;2097764;28;20052;-76
2020/12/21 00:23:52;;;;;;;11.18;3.38;;;15.50;68.70;;;;;;2094311;28;20064;-75
2020/12/21 00:25:11;;;;;;;10.32;2.95;;;15.70;67.90;;;;;;2094982;28;20477;-75
2020/12/21 00:26:14;;;;;;;12.75;4.05;;;15.90;68.20;;;;;;2094709;28;20510;-76
2020/12/21 00:27:28;;;;;;;15.15;4.70;;;15.90;66.80;;;;;;2086835;28;20545;-76
2020/12/21 00:28:44;;;;;;;10.57;3.85;;;15.60;68.20;;;;;;2092675;28;20138;-76
2020/12/21 00:29:49;;;;;;;14.32;3.55;;;15.80;68.00;;;;;;2097073;28;20049;-77
2020/12/21 00:30:51;;;;;;;13.20;4.22;;;15.70;67.70;;;;;;2088313;28;20492;-77
2020/12/21 00:32:17;;;;;;;11.75;3.80;;;15.50;68.20;;;;;;2095163;28;20077;-76
2020/12/21 00:33:37;;;;;;;8.68;2.83;;;15.90;67.80;;;;;;2094366;28;20048;-76
2020/12/21 00:34:40;;;;;;;13.10;4.00;;;16.00;67.70;;;;;;2086333;28;20051;-76
2020/12/21 00:35:43;;;;;;;9.27;3.03;;;15.90;67.50;;;;;;2093681;28;20049;-76
2020/12/21 00:36:51;;;;;;;11.98;3.80;;;16.00;67.00;;;;;;2094789;28;20099;-76
2020/12/21 00:37:53;;;;;;;14.20;4.30;;;15.80;67.20;;;;;;2085548;28;20060;-75
2020/12/21 00:38:59;;;;;;;11.05;3.55;;;15.80;67.40;;;;;;2096295;28;20037;-76
2020/12/21 00:40:01;;;;;;;13.80;4.28;;;16.00;67.60;;;;;;2078194;28;20049;-76
2020/12/21 00:41:08;;;;;;;10.65;3.13;;;15.90;66.90;;;;;;2079618;28;20046;-76
2020/12/21 00:42:27;;;;;;;7.65;3.08;;;16.10;67.60;;;;;;2086500;28;20049;-76
2020/12/21 00:43:30;;;;;;;10.63;3.60;;;16.40;66.90;;;;;;2086256;28;20029;-76
2020/12/21 00:44:41;;;;;;;14.40;3.55;;;16.30;65.60;;;;;;2085917;28;20057;-75
2020/12/21 00:46:12;;;;;;;10.13;3.10;;;16.30;66.40;;;;;;2084133;28;20045;-75
2020/12/21 00:47:16;;;;;;;8.73;2.90;;;16.10;66.80;;;;;;2086929;28;20065;-76
2020/12/21 00:48:33;;;;;;;12.80;4.22;;;16.30;66.90;;;;;;2087866;28;20069;-76
2020/12/21 00:49:42;;;;;;;13.00;3.95;;;16.00;67.10;;;;;;2093826;28;20543;-76
2020/12/21 00:51:06;;;;;;;9.82;3.28;;;15.80;67.00;;;;;;2090235;28;20113;-76
2020/12/21 00:52:20;;;;;;;12.65;3.33;;;15.90;67.40;;;;;;2094260;28;20560;-76
2020/12/21 00:53:22;;;;;;;12.60;3.78;;;15.60;68.10;;;;;;2092892;28;20068;-76
2020/12/21 00:54:36;;;;;;;11.65;3.63;;;15.60;67.50;;;;;;2087309;28;20026;-75
2020/12/21 00:56:02;;;;;;;12.05;3.10;;;15.50;68.50;;;;;;2086589;28;20068;-76
2020/12/21 00:57:15;;;;;;;9.82;4.07;;;15.60;68.40;;;;;;2094488;28;20049;-76
2020/12/21 00:58:18;;;;;;;7.60;3.28;;;15.30;68.80;;;;;;2094015;28;20056;-77
2020/12/21 00:59:22;;;;;;;12.25;4.10;;;15.50;69.00;;;;;;2093896;28;20115;-76
2020/12/21 01:00:28;;;;;;;8.52;3.25;;;15.80;67.40;;;;;;2085974;28;20045;-77
2020/12/21 01:01:34;;;;;;;8.15;3.10;;;15.80;68.20;;;;;;2093608;28;20045;-76
2020/12/21 01:02:39;;;;;;;13.40;3.47;;;15.90;67.90;;;;;;2092390;28;20052;-76
2020/12/21 01:04:05;;;;;;;11.90;3.15;;;15.90;67.60;;;;;;2086440;28;20045;-76
2020/12/21 01:05:08;;;;;;;10.93;3.70;;;15.80;67.40;;;;;;2095141;28;20049;-76
2020/12/21 01:06:12;;;;;;;10.65;3.60;;;15.80;67.20;;;;;;2094228;28;20326;-76
2020/12/21 01:07:14;;;;;;;10.02;3.75;;;15.80;67.20;;;;;;2094861;28;20052;-76
2020/12/21 01:08:20;;;;;;;9.13;3.25;;;15.90;67.90;;;;;;2093340;28;20041;-77
2020/12/21 01:09:27;;;;;;;7.40;3.08;;;16.10;67.10;;;;;;2091679;28;20075;-75
2020/12/21 01:10:44;;;;;;;10.45;3.40;;;16.30;66.60;;;;;;2086147;28;20045;-76
2020/12/21 01:11:46;;;;;;;11.88;3.58;;;16.40;66.30;;;;;;2086436;28;20045;-76
2020/12/21 01:13:05;;;;;;;8.15;3.00;;;16.30;65.30;;;;;;2096657;28;20087;-76
2020/12/21 01:14:07;;;;;;;9.77;2.50;;;16.30;66.20;;;;;;2084123;28;20045;-77
2020/12/21 01:15:10;;;;;;;12.45;3.72;;;16.40;65.90;;;;;;2084623;28;20387;-78
2020/12/21 01:16:30;;;;;;;10.93;3.75;;;16.40;65.20;;;;;;2093414;28;20498;-76
2020/12/21 01:17:32;;;;;;;9.00;3.10;;;15.70;67.00;;;;;;2092522;28;20049;-76
2020/12/21 01:18:39;;;;;;;8.93;2.83;;;15.70;68.90;;;;;;2091301;28;20142;-76
2020/12/21 01:19:46;;;;;;;7.38;3.08;;;15.80;68.30;;;;;;2093058;28;20045;-76
2020/12/21 01:20:58;;;;;;;9.55;3.28;;;15.90;67.80;;;;;;2087237;28;20075;-77
2020/12/21 01:22:04;;;;;;;9.05;3.42;;;15.90;67.90;;;;;;2095646;28;20045;-77
2020/12/21 01:23:08;;;;;;;11.57;3.20;;;15.80;67.60;;;;;;2099095;28;20052;-76
2020/12/21 01:24:10;;;;;;;12.55;3.88;;;15.90;67.30;;;;;;2093100;28;20056;-76
2020/12/21 01:25:13;;;;;;;11.73;3.72;;;15.50;67.10;;;;;;2093283;28;20050;-76
2020/12/21 01:26:17;;;;;;;12.07;3.35;;;15.30;68.80;;;;;;2092551;28;20414;-77
2020/12/21 01:27:20;;;;;;;8.90;3.85;;;15.70;68.70;;;;;;2092543;28;20548;-76
2020/12/21 01:28:35;;;;;;;12.52;3.47;;;15.70;67.80;;;;;;2092239;28;20489;-76
2020/12/21 01:29:43;;;;;;;15.25;4.35;;;15.30;68.70;;;;;;2092497;28;20061;-76
2020/12/21 01:31:08;;;;;;;12.35;3.85;;;15.40;68.60;;;;;;2093249;28;20053;-77
2020/12/21 01:32:18;;;;;;;9.90;3.10;;;15.40;68.80;;;;;;2094554;28;20382;-78
2020/12/21 01:33:20;;;;;;;14.13;3.45;;;15.10;69.90;;;;;;2096094;28;20037;-76
2020/12/21 01:34:22;;;;;;;12.27;4.03;;;15.40;69.10;;;;;;2096610;28;20029;-77
2020/12/21 01:35:24;;;;;;;13.07;4.00;;;15.20;69.00;;;;;;2096035;28;20067;-76
2020/12/21 01:36:29;;;;;;;8.32;3.15;;;15.20;70.00;;;;;;2096056;28;20072;-77
2020/12/21 01:37:31;;;;;;;7.65;3.03;;;15.30;69.80;;;;;;2104820;28;20098;-76
2020/12/21 01:38:42;;;;;;;13.32;2.92;;;15.50;69.30;;;;;;2098003;28;20045;-77
2020/12/21 01:39:59;;;;;;;13.73;3.50;;;15.50;68.70;;;;;;2098360;28;20053;-78
2020/12/21 01:41:15;;;;;;;8.45;3.00;;;15.20;68.50;;;;;;2096940;28;20060;-77
2020/12/21 01:42:20;;;;;;;14.10;3.65;;;15.30;69.00;;;;;;2095805;28;20547;-76
2020/12/21 01:43:22;;;;;;;14.15;3.38;;;15.40;68.70;;;;;;2094686;28;20444;-76
2020/12/21 01:44:38;;;;;;;8.18;2.60;;;15.20;69.40;;;;;;2071130;28;20054;-77
2020/12/21 01:45:40;;;;;;;8.10;3.38;;;15.60;70.20;;;;;;2071854;28;20047;-77
2020/12/21 01:46:42;;;;;;;5.47;2.72;;;15.70;68.60;;;;;;2102973;28;20497;-77
2020/12/21 01:47:50;;;;;;;11.07;3.45;;;15.80;69.00;;;;;;2110372;28;20048;-76
2020/12/21 01:48:55;;;;;;;6.07;2.67;;;15.90;67.70;;;;;;2101153;28;20073;-76
2020/12/21 01:50:03;;;;;;;11.57;3.75;;;15.90;67.90;;;;;;2092399;28;20417;-76
2020/12/21 01:51:13;;;;;;;9.18;3.00;;;15.70;67.70;;;;;;2092226;28;20485;-77
2020/12/21 01:52:30;;;;;;;8.23;2.80;;;15.70;68.30;;;;;;2092281;28;20056;-76
2020/12/21 01:53:34;;;;;;;11.75;3.75;;;15.80;68.30;;;;;;2091489;28;20421;-77
2020/12/21 01:54:44;;;;;;;7.78;2.55;;;15.60;67.90;;;;;;2091773;28;20055;-76
2020/12/21 01:55:53;;;;;;;12.98;3.10;;;15.80;68.60;;;;;;2091894;28;20048;-77
2020/12/21 01:56:55;;;;;;;12.52;2.95;;;16.00;68.00;;;;;;2091599;28;20061;-76
2020/12/21 01:58:01;;;;;;;13.10;2.97;;;15.90;67.60;;;;;;2090871;28;20060;-76
2020/12/21 01:59:05;;;;;;;5.53;2.17;;;15.80;66.80;;;;;;2091297;28;20041;-77
2020/12/21 02:00:08;;;;;;;11.75;3.83;;;16.00;68.10;;;;;;2091419;28;20051;-76
2020/12/21 02:01:12;;;;;;;13.65;3.60;;;16.00;66.80;;;;;;2092149;28;20037;-76
2020/12/21 02:02:21;;;;;;;6.35;2.58;;;15.40;67.70;;;;;;2091712;28;20045;-76
2020/12/21 02:03:33;;;;;;;8.05;3.33;;;15.60;69.10;;;;;;2091231;28;20052;-76
2020/12/21 02:04:43;;;;;;;9.70;3.30;;;15.80;67.50;;;;;;2091696;28;20049;-77
2020/12/21 02:06:03;;;;;;;7.05;2.35;;;15.80;68.30;;;;;;2092144;28;20041;-76
2020/12/21 02:07:13;;;;;;;7.70;2.70;;;16.00;68.00;;;;;;2091546;28;20061;-76
2020/12/21 02:08:19;;;;;;;9.00;2.42;;;16.30;67.40;;;;;;2091520;28;20057;-76
2020/12/21 02:09:22;;;;;;;6.78;2.63;;;16.20;67.10;;;;;;2091426;28;20532;-76
2020/12/21 02:10:24;;;;;;;10.55;2.95;;;16.40;66.40;;;;;;2091884;28;20052;-77
2020/12/21 02:11:33;;;;;;;8.18;2.83;;;16.40;66.00;;;;;;2091739;28;20044;-76
2020/12/21 02:12:38;;;;;;;8.15;2.58;;;16.50;66.00;;;;;;2090966;28;20041;-76
2020/12/21 02:13:42;;;;;;;10.30;3.05;;;16.40;66.50;;;;;;2095620;28;20044;-77
2020/12/21 02:14:50;;;;;;;10.60;3.15;;;16.40;65.10;;;;;;2099884;28;20044;-76
2020/12/21 02:15:54;;;;;;;9.70;3.10;;;16.00;66.10;;;;;;2100141;28;20045;-76
2020/12/21 02:17:00;;;;;;;8.25;2.70;;;15.70;67.40;;;;;;2100111;28;20103;-77
2020/12/21 02:18:07;;;;;;;10.07;3.38;;;16.20;67.60;;;;;;2099606;28;20044;-76
2020/12/21 02:19:09;;;;;;;12.25;3.10;;;16.00;67.20;;;;;;2099743;28;20049;-76
2020/12/21 02:20:11;;;;;;;;;;;15.90;66.90;;;;;;2100164;28;20518;-76
2020/12/21 02:21:15;;;;;;;8.15;2.75;;;15.50;67.60;;;;;;2099380;28;19940;-77
2020/12/21 02:22:28;;;;;;;17.63;4.03;;;15.80;68.50;;;;;;2100199;28;20381;-77
2020/12/21 02:23:35;;;;;;;10.07;3.05;;;15.80;67.10;;;;;;2101273;28;20070;-77
2020/12/21 02:24:39;;;;;;;7.18;2.67;;;15.90;67.80;;;;;;2103314;28;20256;-76
2020/12/21 02:25:42;;;;;;;10.07;2.85;;;15.80;68.70;;;;;;2103134;28;20051;-77
2020/12/21 02:26:51;;;;;;;8.00;2.72;;;15.90;67.10;;;;;;2103650;28;20420;-78
2020/12/21 02:27:53;;;;;;;9.48;3.22;;;16.10;67.40;;;;;;2102660;28;20122;-76
2020/12/21 02:29:02;;;;;;;13.27;3.50;;;16.10;66.60;;;;;;2104005;28;20040;-78
2020/12/21 02:30:09;;;;;;;15.35;3.53;;;16.40;66.80;;;;;;2094793;28;20065;-77
2020/12/21 02:31:12;;;;;;;11.63;3.60;;;16.00;66.20;;;;;;2087074;28;20049;-76
2020/12/21 02:32:23;;;;;;;6.40;2.70;;;16.00;67.20;;;;;;2093319;28;20044;-76
2020/12/21 02:33:29;;;;;;;6.82;2.55;;;16.20;66.40;;;;;;2087752;28;20103;-75
2020/12/21 02:34:38;;;;;;;9.88;2.88;;;16.20;67.30;;;;;;2087590;28;20042;-76
2020/12/21 02:35:56;;;;;;;17.00;3.40;;;16.20;67.10;;;;;;2088139;28;20080;-77
2020/12/21 02:37:03;;;;;;;8.50;2.70;;;15.80;65.90;;;;;;2094494;28;20064;-78
2020/12/21 02:38:17;;;;;;;11.35;3.25;;;16.00;67.30;;;;;;2093328;28;20041;-76
2020/12/21 02:39:22;;;;;;;9.25;3.10;;;16.10;67.00;;;;;;2087537;28;20073;-76
2020/12/21 02:40:24;;;;;;;17.55;3.83;;;15.90;66.80;;;;;;2086748;28;20053;-76
2020/12/21 02:41:28;;;;;;;13.45;3.50;;;15.50;67.30;;;;;;2087554;28;20101;-75
2020/12/21 02:42:32;;;;;;;16.63;3.60;;;15.20;68.80;;;;;;2088531;28;20056;-77
2020/12/21 02:43:43;;;;;;;12.82;2.70;;;15.10;69.30;;;;;;2087049;28;20045;-76
2020/12/21 02:44:45;;;;;;;8.57;2.67;;;15.30;69.90;;;;;;2086942;28;20061;-75
2020/12/21 02:45:48;;;;;;;13.05;3.10;;;15.40;69.30;;;;;;2087141;28;20049;-75
2020/12/21 02:47:15;;;;;;;9.95;3.30;;;15.50;68.20;;;;;;2085721;28;20050;-75
2020/12/21 02:48:21;;;;;;;13.02;3.33;;;15.20;69.30;;;;;;2085935;28;20056;-77
2020/12/21 02:49:37;;;;;;;;;;;15.50;68.60;;;;;;2089091;28;20056;-75
2020/12/21 02:50:40;;;;;;;18.88;3.20;;;15.30;69.30;;;;;;2087675;28;19984;-76
2020/12/21 02:52:04;;;;;;;11.57;2.92;;;14.80;69.60;;;;;;2087929;28;20153;-76
2020/12/21 02:53:08;;;;;;;9.85;3.28;;;14.50;72.10;;;;;;2086168;28;20050;-75
2020/12/21 02:54:14;;;;;;;10.80;3.28;;;14.60;72.20;;;;;;2100664;28;20044;-75
2020/12/21 02:55:16;;;;;;;9.43;2.90;;;14.80;71.40;;;;;;2091641;28;20057;-76
2020/12/21 02:56:21;;;;;;;9.27;2.97;;;14.80;71.60;;;;;;2084112;28;20049;-76
2020/12/21 02:57:24;;;;;;;7.55;2.03;;;14.90;71.50;;;;;;2100391;28;20065;-75
2020/12/21 02:58:25;;;;;;;10.40;2.60;;;15.00;71.50;;;;;;2099958;28;20059;-75
2020/12/21 02:59:30;;;;;;;16.58;3.17;;;15.00;70.80;;;;;;2085171;28;20069;-75
2020/12/21 03:00:36;;;;;;;8.52;2.38;;;14.90;70.10;;;;;;2086901;28;20037;-75
2020/12/21 03:01:39;;;;;;;9.77;2.55;;;15.20;71.20;;;;;;2094876;28;20501;-76
2020/12/21 03:02:43;;;;;;;11.05;2.70;;;15.40;70.00;;;;;;2102562;28;20477;-76
2020/12/21 03:03:51;;;;;;;9.95;2.90;;;15.60;69.10;;;;;;2101580;28;20048;-75
2020/12/21 03:04:53;;;;;;;10.73;3.22;;;15.30;69.00;;;;;;2089591;28;20065;-76
2020/12/21 03:05:55;;;;;;;;;;;15.00;69.40;;;;;;2090036;28;20045;-76
2020/12/21 03:06:57;;;;;;;12.30;2.38;;;14.80;70.30;;;;;;2087059;28;19967;-76
2020/12/21 03:08:02;;;;;;;12.93;2.58;;;15.00;71.50;;;;;;2085574;28;20053;-76
2020/12/21 03:09:05;;;;;;;8.23;3.03;;;15.10;70.80;;;;;;2097318;28;20568;-75
2020/12/21 03:10:11;;;;;;;13.98;3.00;;;14.80;71.30;;;;;;2097849;28;20041;-76
2020/12/21 03:11:13;;;;;;;15.30;3.08;;;14.90;70.50;;;;;;2084717;28;20080;-76
2020/12/21 03:12:16;;;;;;;7.70;2.60;;;14.80;70.80;;;;;;2084979;28;20049;-76
2020/12/21 03:13:18;;;;;;;8.90;2.58;;;15.10;71.30;;;;;;2093889;28;20053;-76
2020/12/21 03:14:20;;;;;;;;;;;15.40;71.10;;;;;;2095950;28;20056;-76
2020/12/21 03:15:27;;;;;;;12.85;2.65;;;15.40;70.30;;;;;;2096821;28;19924;-76
2020/12/21 03:16:29;;;;;;;8.70;2.38;;;15.50;69.90;;;;;;2095467;28;20041;-76
2020/12/21 03:17:35;;;;;;;8.55;2.60;;;15.70;69.40;;;;;;2087861;28;20045;-76
2020/12/21 03:18:37;;;;;;;8.10;2.90;;;15.80;68.90;;;;;;2095157;28;20079;-76
2020/12/21 03:19:39;;;;;;;9.95;2.67;;;15.80;69.00;;;;;;2095460;28;20099;-76
2020/12/21 03:20:40;;;;;;;12.23;3.58;;;15.90;68.20;;;;;;2095916;28;20041;-76
2020/12/21 03:21:42;;;;;;;6.25;2.25;;;15.60;68.50;;;;;;2095345;28;20049;-76
2020/12/21 03:22:47;;;;;;;8.40;2.25;;;15.80;69.00;;;;;;2095399;28;20052;-76
2020/12/21 03:23:50;;;;;;;6.68;2.22;;;15.90;68.50;;;;;;2095159;28;20056;-76
2020/12/21 03:24:52;;;;;;;14.65;3.13;;;16.20;68.40;;;;;;2096084;28;20056;-77
2020/12/21 03:25:55;;;;;;;7.78;2.45;;;16.20;67.40;;;;;;2095451;28;20056;-79
2020/12/21 03:26:57;;;;;;;6.85;2.20;;;16.00;68.30;;;;;;2096176;28;20041;-77
2020/12/21 03:27:59;;;;;;;7.90;2.65;;;16.20;67.80;;;;;;2094892;28;20440;-76
2020/12/21 03:29:01;;;;;;;9.25;2.80;;;16.40;67.30;;;;;;2094855;28;20517;-76
2020/12/21 03:30:04;;;;;;;13.52;2.58;;;16.50;66.60;;;;;;2095221;28;20048;-77
2020/12/21 03:31:11;;;;;;;7.68;2.15;;;16.20;67.00;;;;;;2095539;28;20045;-78
2020/12/21 03:32:13;;;;;;;6.18;2.50;;;16.00;67.50;;;;;;2095370;28;20041;-76
2020/12/21 03:33:16;;;;;;;7.60;2.22;;;16.10;67.90;;;;;;2094807;28;20056;-76
2020/12/21 03:34:21;;;;;;;6.35;2.20;;;16.40;67.50;;;;;;2094022;28;20048;-77
2020/12/21 03:35:26;;;;;;;8.32;3.03;;;16.50;66.70;;;;;;2095573;28;20531;-77
2020/12/21 03:36:30;;;;;;;6.57;2.28;;;16.50;66.50;;;;;;2094411;28;20064;-76
2020/12/21 03:37:33;;;;;;;10.70;3.33;;;16.80;66.10;;;;;;2085931;28;20049;-76
2020/12/21 03:38:35;;;;;;;8.30;2.70;;;16.40;66.20;;;;;;2094464;28;20041;-76
2020/12/21 03:39:40;;;;;;;5.70;2.10;;;16.40;66.70;;;;;;2094495;28;20055;-76
2020/12/21 03:40:43;;;;;;;8.50;3.00;;;16.50;66.70;;;;;;2098578;28;20069;-79
2020/12/21 03:41:54;;;;;;;7.53;2.25;;;16.40;65.90;;;;;;2100212;28;20175;-78
2020/12/21 03:43:04;;;;;;;8.73;2.83;;;16.10;67.60;;;;;;2100696;28;20049;-77
2020/12/21 03:44:17;;;;;;;7.03;2.28;;;16.20;67.40;;;;;;2099967;28;20056;-77
2020/12/21 03:45:41;;;;;;;9.30;2.10;;;16.50;66.80;;;;;;2100525;28;20077;-76
2020/12/21 03:46:53;;;;;;;7.20;2.33;;;16.50;67.40;;;;;;2101042;28;20058;-77
2020/12/21 03:48:18;;;;;;;8.73;2.45;;;16.70;66.90;;;;;;2099444;28;20040;-77
2020/12/21 03:49:22;;;;;;;9.82;2.38;;;16.80;66.20;;;;;;2098815;28;20053;-77
2020/12/21 03:50:35;;;;;;;12.55;2.80;;;16.80;65.80;;;;;;2091384;28;20052;-76
2020/12/21 03:51:48;;;;;;;6.70;2.00;;;16.40;66.20;;;;;;2094091;28;20052;-76
2020/12/21 03:52:54;;;;;;;7.43;2.95;;;16.60;66.70;;;;;;2093334;28;20097;-77
2020/12/21 03:54:10;;;;;;;12.20;2.85;;;16.50;66.70;;;;;;2099734;28;20041;-76
2020/12/21 03:55:16;;;;;;;10.63;2.67;;;16.40;66.30;;;;;;2099933;28;20041;-76
2020/12/21 03:56:19;;;;;;;7.93;2.38;;;16.20;67.30;;;;;;2099432;28;20037;-77
2020/12/21 03:57:36;;;;;;;7.80;2.25;;;16.40;67.40;;;;;;2099718;28;20029;-77
2020/12/21 03:58:41;;;;;;;8.10;2.60;;;16.20;67.00;;;;;;2099632;28;20053;-76
2020/12/21 04:00:03;;;;;;;6.20;2.25;;;16.30;67.30;;;;;;2099178;28;20060;-76
2020/12/21 04:01:07;;;;;;;8.95;2.90;;;16.10;68.40;;;;;;2107758;28;20044;-76
2020/12/21 04:02:40;;;;;;;6.50;2.45;;;16.40;67.60;;;;;;2107361;28;20042;-77
2020/12/21 04:04:03;;;;;;;8.07;3.00;;;16.50;67.30;;;;;;2099981;28;20059;-76
2020/12/21 04:05:30;;;;;;;11.75;2.70;;;16.10;67.60;;;;;;2100089;28;20092;-77
2020/12/21 04:07:25;;;;;;;11.20;2.72;;;16.00;69.10;;;;;;2100188;28;20037;-76
2020/12/21 04:08:28;;;;;;;7.07;2.30;;;16.20;67.90;;;;;;2099914;28;20033;-76
2020/12/21 04:09:33;;;;;;;7.75;2.38;;;16.20;68.50;;;;;;2099165;28;20101;-76
2020/12/21 04:10:45;;;;;;;8.27;2.90;;;16.30;68.00;;;;;;2100145;28;20053;-76
2020/12/21 04:12:16;;;;;;;7.28;2.22;;;16.40;67.30;;;;;;2099781;28;20108;-76
2020/12/21 04:13:26;;;;;;;7.00;2.17;;;16.30;67.30;;;;;;2104523;28;20108;-76
2020/12/21 04:14:48;;;;;;;10.45;2.10;;;16.20;68.20;;;;;;2104094;28;20075;-76
2020/12/21 04:16:14;;;;;;;5.97;1.85;;;16.10;67.70;;;;;;2098349;28;20045;-75
2020/12/21 04:17:18;;;;;;;6.82;1.95;;;16.40;68.00;;;;;;2096576;28;20128;-76
2020/12/21 04:18:20;;;;;;;12.40;2.47;;;16.50;67.10;;;;;;2097410;28;20090;-77
2020/12/21 04:19:30;;;;;;;14.40;3.40;;;16.50;67.00;;;;;;2098945;28;20045;-75
2020/12/21 04:20:33;;;;;;;9.13;2.50;;;16.10;67.60;;;;;;2098394;28;20048;-76
2020/12/21 04:21:42;;;;;;;8.60;2.30;;;16.30;67.70;;;;;;2098034;28;20041;-77
2020/12/21 04:22:44;;;;;;;8.27;2.13;;;16.10;68.00;;;;;;2098861;28;20056;-75
2020/12/21 04:23:46;;;;;;;11.95;3.08;;;16.20;68.30;;;;;;2098162;28;20045;-76
2020/12/21 04:24:48;;;;;;;5.95;2.17;;;16.20;67.90;;;;;;2090747;28;20056;-76
2020/12/21 04:25:51;;;;;;;8.27;2.45;;;16.00;68.60;;;;;;2089576;28;20049;-76
2020/12/21 04:26:53;;;;;;;13.32;3.28;;;16.30;68.20;;;;;;2097525;28;20517;-76
2020/12/21 04:27:55;;;;;;;13.27;2.92;;;16.30;67.30;;;;;;2097246;28;20045;-76
2020/12/21 04:29:07;;;;;;;8.90;2.67;;;16.10;67.50;;;;;;2090952;28;20072;-77
2020/12/21 04:30:09;;;;;;;12.85;3.25;;;16.20;68.10;;;;;;2097643;28;20059;-79
2020/12/21 04:31:29;;;;;;;7.45;2.15;;;16.00;68.30;;;;;;2099396;28;20056;-76
2020/12/21 04:32:41;;;;;;;12.77;2.63;;;15.70;69.80;;;;;;2098606;28;20060;-76
2020/12/21 04:33:42;;;;;;;9.30;2.83;;;15.90;69.20;;;;;;2099102;28;20059;-76
2020/12/21 04:34:53;;;;;;;9.07;2.42;;;15.90;69.40;;;;;;2098978;28;20079;-76
2020/12/21 04:35:56;;;;;;;14.68;2.65;;;16.10;68.80;;;;;;2099210;28;20041;-76
2020/12/21 04:36:58;;;;;;;13.70;2.88;;;16.00;68.50;;;;;;2099596;28;20045;-77
2020/12/21 04:38:06;;;;;;;9.60;2.53;;;15.50;70.20;;;;;;2099724;28;20052;-77
2020/12/21 04:39:09;;;;;;;6.95;2.20;;;15.70;70.20;;;;;;2099000;28;20047;-76
2020/12/21 04:40:11;;;;;;;9.00;2.33;;;15.50;70.80;;;;;;2100068;28;20052;-77
2020/12/21 04:41:22;;;;;;;10.73;2.97;;;15.50;71.00;;;;;;2100216;28;20055;-77
2020/12/21 04:42:30;;;;;;;9.77;3.10;;;15.30;71.30;;;;;;2100021;28;20036;-77
2020/12/21 04:43:37;;;;;;;14.50;3.40;;;15.40;71.30;;;;;;2100633;28;20051;-76
2020/12/21 04:44:41;;;;;;;8.07;2.30;;;15.50;70.70;;;;;;2100350;28;20052;-78
2020/12/21 04:45:48;;;;;;;8.52;2.30;;;15.60;71.00;;;;;;2100385;28;20040;-78
2020/12/21 04:46:58;;;;;;;10.40;2.55;;;15.60;70.70;;;;;;2100437;28;20051;-77
2020/12/21 04:48:14;;;;;;;9.00;2.67;;;15.70;71.20;;;;;;2098731;28;20056;-78
2020/12/21 04:49:17;;;;;;;8.27;2.35;;;15.70;69.50;;;;;;2100512;28;20025;-77
2020/12/21 04:50:43;;;;;;;6.25;2.30;;;15.50;71.10;;;;;;2100592;28;20044;-78
2020/12/21 04:51:47;;;;;;;9.77;2.67;;;15.60;70.80;;;;;;2096221;28;20049;-76
2020/12/21 04:52:54;;;;;;;9.35;2.55;;;15.60;70.20;;;;;;2091557;28;20067;-76
2020/12/21 04:53:58;;;;;;;12.57;3.10;;;15.80;70.00;;;;;;2092454;28;20120;-76
2020/12/21 04:55:04;;;;;;;12.65;3.55;;;15.20;70.90;;;;;;2084806;28;20053;-76
2020/12/21 04:56:06;;;;;;;13.23;3.00;;;15.30;71.60;;;;;;2092917;28;20052;-76
2020/12/21 04:57:09;;;;;;;13.38;3.42;;;15.60;71.60;;;;;;2092805;28;20052;-76
2020/12/21 04:58:13;;;;;;;7.20;2.13;;;15.40;70.50;;;;;;2091672;28;20053;-76
2020/12/21 04:59:18;;;;;;;8.00;2.85;;;15.40;71.30;;;;;;2084553;28;20042;-76
2020/12/21 05:00:21;;;;;;;5.93;2.20;;;15.10;72.40;;;;;;2091968;28;20041;-76
2020/12/21 05:01:25;;;;;;;5.32;2.00;;;15.40;72.30;;;;;;2092960;28;20498;-76
2020/12/21 05:02:27;;;;;;;9.73;2.40;;;15.70;71.00;;;;;;2093913;28;20045;-76
2020/12/21 05:03:40;;;;;;;9.73;3.03;;;15.90;70.30;;;;;;2089278;28;20053;-76
2020/12/21 05:04:55;;;;;;;7.68;2.15;;;16.00;69.40;;;;;;2089637;28;20041;-76
2020/12/21 05:06:06;;;;;;;8.68;2.67;;;16.20;69.40;;;;;;2095208;28;20429;-76
2020/12/21 05:07:16;;;;;;;8.95;2.65;;;16.30;68.50;;;;;;2094236;28;20055;-76
2020/12/21 05:08:21;;;;;;;6.40;2.08;;;15.90;69.00;;;;;;2093478;28;20175;-76
2020/12/21 05:09:24;;;;;;;13.48;3.20;;;16.00;69.90;;;;;;2084705;28;20053;-76
2020/12/21 05:10:30;;;;;;;12.88;3.30;;;16.00;68.80;;;;;;2091300;28;20068;-77
2020/12/21 05:11:40;;;;;;;14.13;3.45;;;15.80;75.50;;;;;;2092944;28;20049;-75
2020/12/21 05:12:42;;;;;;;12.82;3.13;;;15.40;78.80;;;;;;2091082;28;20044;-76
2020/12/21 05:13:44;;;;;;;10.13;3.17;;;15.10;73.80;;;;;;2085378;28;20658;-76
2020/12/21 05:14:48;;;;;;;8.55;3.08;;;14.90;79.40;;;;;;2104987;28;20052;-76
2020/12/21 05:15:51;;;;;;;8.35;2.30;;;14.70;79.50;;;;;;2100092;28;20044;-77
2020/12/21 05:16:53;;;;;;;7.05;2.60;;;15.00;78.90;;;;;;2099761;28;20099;-77
2020/12/21 05:18:02;;;;;;;;;;;15.10;76.40;;;;;;2093353;28;20053;-77
2020/12/21 05:19:05;;;;;;;13.77;3.65;;;14.70;73.70;;;;;;2093835;28;19928;-77
2020/12/21 05:20:07;;;;;;;6.40;2.30;;;14.40;74.20;;;;;;2101652;28;20052;-77
2020/12/21 05:21:10;;;;;;;;;;;14.70;75.10;;;;;;2100196;28;20062;-77
2020/12/21 05:22:14;;;;;;;10.65;2.95;;;15.00;74.30;;;;;;2101979;28;19920;-78
2020/12/21 05:23:24;;;;;;;9.18;2.58;;;15.00;73.50;;;;;;2102092;28;20123;-77
2020/12/21 05:24:30;;;;;;;13.23;3.45;;;15.10;73.40;;;;;;2100500;28;20051;-78
2020/12/21 05:25:33;;;;;;;12.32;2.70;;;14.90;72.90;;;;;;2101950;28;20045;-76
2020/12/21 05:26:36;;;;;;;13.27;3.30;;;15.10;73.10;;;;;;2101566;28;20044;-77
2020/12/21 05:27:37;;;;;;;21.38;4.10;;;15.00;72.80;;;;;;2100381;28;20052;-76
2020/12/21 05:28:44;;;;;;;10.23;2.60;;;14.80;74.10;;;;;;2102170;28;20511;-76
2020/12/21 05:29:52;;;;;;;7.30;2.20;;;14.90;73.90;;;;;;2102889;28;20048;-77
2020/12/21 05:30:56;;;;;;;8.70;2.95;;;15.00;73.20;;;;;;2101779;28;20048;-78
2020/12/21 05:32:01;;;;;;;9.70;3.38;;;15.00;73.90;;;;;;2091893;28;20059;-77
2020/12/21 05:33:03;;;;;;;20.20;4.55;;;14.70;74.40;;;;;;2093811;28;20045;-75
2020/12/21 05:34:07;;;;;;;8.90;2.80;;;14.70;75.60;;;;;;2101310;28;20043;-77
2020/12/21 05:35:17;;;;;;;10.90;3.10;;;14.40;76.70;;;;;;2100880;28;20045;-77
2020/12/21 05:36:21;;;;;;;16.17;2.97;;;14.40;75.60;;;;;;2100046;28;20055;-76
2020/12/21 05:37:29;;;;;;;12.32;3.05;;;14.60;75.50;;;;;;2090725;28;20053;-76
2020/12/21 05:38:32;;;;;;;12.65;2.92;;;14.20;76.20;;;;;;2101584;28;20092;-77
2020/12/21 05:39:48;;;;;;;11.35;2.65;;;14.20;76.60;;;;;;2100489;28;20048;-77
2020/12/21 05:40:55;;;;;;;12.27;2.85;;;14.50;76.00;;;;;;2093860;28;20041;-78
2020/12/21 05:42:11;;;;;;;10.93;2.90;;;14.40;75.70;;;;;;2099496;28;20040;-78
2020/12/21 05:43:25;;;;;;;15.35;3.70;;;14.50;75.40;;;;;;2100206;28;20053;-76
2020/12/21 05:44:28;;;;;;;14.20;3.10;;;14.30;76.50;;;;;;2100168;28;20052;-79
2020/12/21 05:45:30;;;;;;;9.45;2.65;;;14.30;76.40;;;;;;2101353;28;20044;-76
2020/12/21 05:46:37;;;;;;;12.85;3.90;;;14.50;76.10;;;;;;2101834;28;20130;-78
2020/12/21 05:47:43;;;;;;;13.07;3.03;;;14.50;75.20;;;;;;2101675;28;20044;-79
2020/12/21 05:48:47;;;;;;;8.60;3.05;;;14.50;75.50;;;;;;2104112;28;20044;-78
2020/12/21 05:49:54;;;;;;;8.43;2.55;;;14.70;75.20;;;;;;2092413;28;20052;-77
2020/12/21 05:51:04;;;;;;;11.02;2.33;;;15.00;74.40;;;;;;2099813;28;20040;-77